Time;durP1;ratioP1;P1;durP2;ratioP2;P2;SDS_P1;SDS_P2;PMS_P1;PMS_P2;Temp;Humidity;BMP_temperature;BMP_pressure;BME280_temperature;BME280_humidity;BME280_pressure;Samples;Min_cycle;Max_cycle;Signal;HPM_P1;HPM_P2
2023/12/15 00:01:07;;;;;;;32.00;20.33;;;4.90;99.90;;;;;;5051582;28;20179;-69
2023/12/15 00:03:33;;;;;;;35.63;21.13;;;5.00;99.90;;;;;;5050813;28;20622;-68
2023/12/15 00:05:59;;;;;;;33.57;21.47;;;5.10;99.90;;;;;;5051087;28;20253;-69
2023/12/15 00:08:24;;;;;;;35.63;21.83;;;5.10;99.90;;;;;;5051482;28;20190;-69
2023/12/15 00:10:50;;;;;;;36.23;22.53;;;5.10;99.90;;;;;;5051487;28;20179;-69
2023/12/15 00:13:16;;;;;;;32.57;21.33;;;5.10;99.90;;;;;;5051116;28;20171;-69
2023/12/15 00:15:42;;;;;;;34.53;19.97;;;5.20;99.90;;;;;;5051057;28;20636;-69
2023/12/15 00:18:07;;;;;;;31.40;19.00;;;5.30;99.90;;;;;;5051573;28;20179;-68
2023/12/15 00:20:34;;;;;;;30.17;19.40;;;5.30;99.90;;;;;;5051367;28;20171;-68
2023/12/15 00:22:59;;;;;;;35.40;20.13;;;5.30;99.90;;;;;;5051259;28;20207;-68
2023/12/15 00:25:25;;;;;;;33.00;19.83;;;5.30;99.90;;;;;;5050780;28;20199;-67
2023/12/15 00:27:51;;;;;;;37.63;20.07;;;5.40;99.90;;;;;;5051120;28;20600;-67
2023/12/15 00:30:16;;;;;;;38.80;21.80;;;5.40;99.90;;;;;;5051028;28;20256;-69
2023/12/15 00:32:42;;;;;;;30.87;19.57;;;5.40;99.90;;;;;;5050965;28;20221;-68
2023/12/15 00:35:08;;;;;;;37.33;20.53;;;5.40;99.90;;;;;;5050659;28;20191;-69
2023/12/15 00:37:33;;;;;;;39.47;20.03;;;5.50;99.90;;;;;;5051259;28;20182;-68
2023/12/15 00:39:59;;;;;;;34.07;19.63;;;5.50;99.90;;;;;;5051195;28;20266;-68
2023/12/15 00:42:24;;;;;;;33.00;19.87;;;5.50;99.90;;;;;;5050715;28;20179;-68
2023/12/15 00:44:50;;;;;;;38.43;19.60;;;5.60;99.90;;;;;;5050838;28;20550;-70
2023/12/15 00:47:16;;;;;;;30.60;20.57;;;5.60;99.90;;;;;;5050892;28;20217;-68
2023/12/15 00:49:41;;;;;;;32.83;18.77;;;5.60;99.90;;;;;;5050926;28;20206;-68
2023/12/15 00:52:07;;;;;;;28.80;19.03;;;5.60;99.90;;;;;;5050743;28;20175;-69
2023/12/15 00:54:33;;;;;;;29.53;19.83;;;5.60;99.90;;;;;;5050597;28;20191;-69
2023/12/15 00:56:59;;;;;;;34.97;20.00;;;5.60;99.90;;;;;;5050737;28;20194;-68
2023/12/15 00:59:26;;;;;;;32.77;19.83;;;5.70;99.90;;;;;;5050539;28;20224;-69
2023/12/15 01:01:51;;;;;;;29.83;19.80;;;5.60;99.90;;;;;;5050860;28;20179;-68
2023/12/15 01:04:17;;;;;;;33.97;21.03;;;5.60;99.90;;;;;;5050607;28;20569;-68
2023/12/15 01:06:43;;;;;;;31.90;18.97;;;5.60;99.90;;;;;;5051208;28;20175;-68
2023/12/15 01:09:08;;;;;;;34.70;19.70;;;5.70;99.90;;;;;;5050689;28;20671;-69
2023/12/15 01:11:34;;;;;;;31.97;19.47;;;5.70;99.90;;;;;;5050413;28;20253;-68
2023/12/15 01:14:00;;;;;;;31.13;18.20;;;5.80;99.90;;;;;;5050313;28;20261;-69
2023/12/15 01:16:25;;;;;;;34.53;19.87;;;5.80;99.90;;;;;;5052559;28;20205;-69
2023/12/15 01:18:51;;;;;;;30.30;18.57;;;5.80;99.90;;;;;;5054784;28;20224;-69
2023/12/15 01:21:16;;;;;;;32.50;19.30;;;5.80;99.90;;;;;;5054598;28;20178;-70
2023/12/15 01:23:42;;;;;;;34.37;19.80;;;5.80;99.90;;;;;;5054410;28;20206;-69
2023/12/15 01:26:08;;;;;;;31.27;18.90;;;5.90;99.90;;;;;;5054519;28;20571;-69
2023/12/15 01:28:33;;;;;;;34.60;19.17;;;5.80;99.90;;;;;;5054266;28;20179;-69
2023/12/15 01:31:01;;;;;;;28.27;17.93;;;5.90;99.90;;;;;;5054587;28;20216;-70
2023/12/15 01:33:27;;;;;;;27.93;18.23;;;5.90;99.90;;;;;;5054253;28;20171;-69
2023/12/15 01:35:53;;;;;;;29.27;18.80;;;5.80;99.90;;;;;;5053076;28;20218;-70
2023/12/15 01:38:19;;;;;;;32.07;18.20;;;5.90;99.90;;;;;;5054532;28;20202;-68
2023/12/15 01:40:44;;;;;;;28.20;18.40;;;5.90;99.90;;;;;;5054178;28;20190;-69
2023/12/15 01:43:10;;;;;;;28.17;18.53;;;5.90;99.90;;;;;;5054069;28;20185;-68
2023/12/15 01:45:35;;;;;;;31.60;17.73;;;6.00;99.90;;;;;;5052966;28;20195;-70
2023/12/15 01:48:02;;;;;;;29.33;19.03;;;6.00;99.90;;;;;;5054306;28;20191;-69
2023/12/15 01:50:27;;;;;;;28.27;18.13;;;6.00;99.90;;;;;;5053722;28;20199;-69
2023/12/15 01:52:53;;;;;;;29.73;17.60;;;6.10;99.90;;;;;;5054091;28;20167;-70
2023/12/15 01:55:19;;;;;;;30.10;18.47;;;6.10;99.90;;;;;;5053589;28;20320;-70
2023/12/15 01:57:44;;;;;;;31.00;19.30;;;6.20;99.90;;;;;;5054207;28;20261;-69
2023/12/15 02:00:10;;;;;;;31.77;19.30;;;6.20;99.90;;;;;;5053945;28;20179;-68
2023/12/15 02:02:36;;;;;;;28.93;17.87;;;6.20;99.90;;;;;;5053913;28;20320;-68
2023/12/15 02:05:02;;;;;;;28.63;18.83;;;6.30;99.90;;;;;;5053900;28;20324;-69
2023/12/15 02:07:30;;;;;;;35.33;19.33;;;6.30;99.90;;;;;;5053619;28;20183;-69
2023/12/15 02:09:57;;;;;;;33.37;18.10;;;6.40;99.90;;;;;;5053611;28;20203;-69
2023/12/15 02:12:23;;;;;;;30.13;18.63;;;6.50;99.90;;;;;;5053724;28;20171;-68
2023/12/15 02:14:49;;;;;;;32.87;20.10;;;6.50;99.90;;;;;;5053834;28;20195;-68
2023/12/15 02:17:14;;;;;;;40.40;19.03;;;6.50;99.90;;;;;;5053081;28;20681;-69
2023/12/15 02:19:40;;;;;;;31.10;18.90;;;6.50;99.90;;;;;;5053834;28;20251;-69
2023/12/15 02:22:05;;;;;;;35.77;18.90;;;6.60;99.90;;;;;;5053355;28;20587;-68
2023/12/15 02:24:31;;;;;;;36.70;19.63;;;6.60;99.90;;;;;;5053585;28;20577;-68
2023/12/15 02:26:57;;;;;;;31.57;19.07;;;6.60;99.90;;;;;;5052990;28;20169;-68
2023/12/15 02:29:23;;;;;;;29.50;18.20;;;6.60;99.90;;;;;;5053277;28;20626;-68
2023/12/15 02:31:49;;;;;;;35.07;18.17;;;6.60;99.90;;;;;;5052966;28;20167;-69
2023/12/15 02:34:14;;;;;;;25.53;17.93;;;6.70;99.90;;;;;;5052979;28;20610;-69
2023/12/15 02:36:40;;;;;;;30.00;18.77;;;6.70;99.90;;;;;;5053260;28;20258;-68
2023/12/15 02:39:06;;;;;;;31.73;18.37;;;6.70;99.90;;;;;;5052060;28;20272;-68
2023/12/15 02:41:32;;;;;;;31.00;19.97;;;6.70;99.90;;;;;;5053204;28;20175;-68
2023/12/15 02:43:58;;;;;;;30.70;19.50;;;6.80;99.90;;;;;;5052894;28;20170;-69
2023/12/15 02:46:24;;;;;;;26.80;18.00;;;6.80;99.90;;;;;;5053103;28;20182;-68
2023/12/15 02:48:49;;;;;;;32.27;18.50;;;6.70;99.90;;;;;;5053013;28;20186;-68
2023/12/15 02:51:28;;;;;;;29.47;18.40;;;6.70;99.90;;;;;;5052756;28;20197;-69
2023/12/15 02:53:54;;;;;;;27.37;19.13;;;6.70;99.90;;;;;;5052908;28;20633;-68
2023/12/15 02:56:20;;;;;;;30.50;19.10;;;6.80;99.90;;;;;;5053081;28;20202;-68
2023/12/15 02:58:46;;;;;;;32.03;19.60;;;6.70;99.90;;;;;;5053048;28;20175;-69
2023/12/15 03:01:11;;;;;;;30.43;19.80;;;6.70;99.90;;;;;;5052787;28;20182;-69
2023/12/15 03:03:37;;;;;;;30.37;18.93;;;6.80;99.90;;;;;;5052251;28;20641;-69
2023/12/15 03:06:03;;;;;;;33.70;19.50;;;6.80;99.90;;;;;;5052737;28;20278;-69
2023/12/15 03:08:28;;;;;;;31.20;20.57;;;6.80;99.90;;;;;;5053012;28;20167;-68
2023/12/15 03:10:57;;;;;;;29.67;18.97;;;6.80;99.90;;;;;;5052594;28;20250;-68
2023/12/15 03:13:24;;;;;;;32.00;19.70;;;6.70;99.90;;;;;;5051055;28;20265;-68
2023/12/15 03:18:18;;;;;;;34.67;20.37;;;6.80;99.90;;;;;;4991996;28;20205;-71
2023/12/15 03:20:44;;;;;;;29.47;18.80;;;6.70;99.90;;;;;;4993440;28;20660;-72
2023/12/15 03:23:10;;;;;;;33.77;19.50;;;6.70;99.90;;;;;;4993070;28;20193;-72
2023/12/15 03:25:36;;;;;;;33.27;19.53;;;6.80;99.90;;;;;;4993300;28;20269;-71
2023/12/15 03:28:02;;;;;;;37.60;19.57;;;6.60;99.90;;;;;;4993577;28;20200;-72
2023/12/15 03:30:27;;;;;;;30.03;19.83;;;6.70;99.90;;;;;;4993008;28;20579;-71
2023/12/15 03:32:53;;;;;;;33.30;19.53;;;6.70;99.90;;;;;;4993277;28;20184;-71
2023/12/15 03:35:19;;;;;;;35.70;19.73;;;6.70;99.90;;;;;;4992988;28;20201;-71
2023/12/15 03:37:45;;;;;;;31.00;20.17;;;6.70;99.90;;;;;;4992896;28;20208;-72
2023/12/15 03:40:11;;;;;;;36.10;21.70;;;6.80;99.90;;;;;;4992525;28;20641;-71
2023/12/15 03:42:37;;;;;;;30.60;20.67;;;6.80;99.90;;;;;;4993012;28;20223;-71
2023/12/15 03:45:04;;;;;;;32.17;19.67;;;6.70;99.90;;;;;;4992877;28;20216;-71
2023/12/15 03:47:29;;;;;;;35.97;19.77;;;6.80;99.90;;;;;;4992662;28;20180;-71
2023/12/15 03:49:55;;;;;;;27.77;19.70;;;6.80;99.90;;;;;;4992903;28;20227;-71
2023/12/15 03:52:21;;;;;;;42.20;23.63;;;6.70;99.90;;;;;;4992582;28;20189;-71
2023/12/15 03:54:46;;;;;;;42.47;23.83;;;6.80;99.90;;;;;;4992867;28;20176;-71
2023/12/15 03:57:12;;;;;;;55.47;29.73;;;6.80;99.90;;;;;;4992583;28;20200;-71
2023/12/15 03:59:40;;;;;;;43.73;24.50;;;6.80;99.90;;;;;;4992637;28;20185;-71
2023/12/15 04:02:11;;;;;;;66.30;35.77;;;6.80;99.90;;;;;;4992798;28;20617;-71
2023/12/15 04:04:37;;;;;;;76.07;46.93;;;6.80;99.90;;;;;;4992978;28;20636;-71
2023/12/15 04:07:02;;;;;;;62.13;36.53;;;6.80;99.90;;;;;;4992999;28;20259;-71
2023/12/15 04:09:28;;;;;;;49.57;32.27;;;6.80;99.90;;;;;;4992627;28;20204;-71
2023/12/15 04:11:53;;;;;;;42.63;25.17;;;6.80;99.90;;;;;;4992259;28;20176;-71
2023/12/15 04:14:19;;;;;;;31.47;20.27;;;6.80;99.90;;;;;;4992245;28;20216;-72
2023/12/15 04:16:44;;;;;;;32.43;20.10;;;6.80;99.90;;;;;;4992508;28;20590;-71
2023/12/15 04:19:10;;;;;;;33.90;19.90;;;6.80;99.90;;;;;;4992261;28;20197;-71
2023/12/15 04:21:36;;;;;;;33.03;20.57;;;6.90;99.90;;;;;;4992268;28;20207;-71
2023/12/15 04:24:03;;;;;;;26.50;19.33;;;6.90;99.90;;;;;;4992210;28;20183;-71
2023/12/15 04:26:28;;;;;;;33.37;21.03;;;6.90;99.90;;;;;;4992283;28;20621;-71
2023/12/15 04:28:54;;;;;;;28.53;18.57;;;6.80;99.90;;;;;;4992235;28;20240;-71
2023/12/15 04:31:19;;;;;;;27.93;17.77;;;6.80;99.90;;;;;;4992101;28;20200;-71
2023/12/15 04:33:45;;;;;;;28.07;17.43;;;6.80;99.90;;;;;;4991935;28;20516;-71
2023/12/15 04:36:11;;;;;;;29.63;17.80;;;6.80;99.90;;;;;;4991965;28;20200;-71
2023/12/15 04:38:37;;;;;;;30.67;19.97;;;6.90;99.90;;;;;;4992531;28;20200;-71
2023/12/15 04:41:03;;;;;;;35.70;19.63;;;6.80;99.90;;;;;;4992022;28;20181;-71
2023/12/15 04:43:28;;;;;;;29.47;18.57;;;6.80;99.90;;;;;;4991579;28;20543;-71
2023/12/15 04:45:55;;;;;;;28.00;17.87;;;6.80;99.90;;;;;;4991955;28;20193;-71
2023/12/15 04:48:21;;;;;;;32.93;19.23;;;6.90;99.90;;;;;;4992067;28;20177;-71
2023/12/15 04:50:47;;;;;;;28.43;17.53;;;6.90;99.90;;;;;;4991999;28;20208;-71
2023/12/15 04:53:13;;;;;;;28.67;18.07;;;6.90;99.90;;;;;;4991621;28;20179;-71
2023/12/15 04:55:38;;;;;;;27.07;16.50;;;6.90;99.90;;;;;;4991616;28;20196;-71
2023/12/15 04:58:05;;;;;;;27.73;18.70;;;6.90;99.90;;;;;;4991416;28;20663;-71
2023/12/15 05:00:31;;;;;;;32.43;18.53;;;6.90;99.90;;;;;;4991426;28;20179;-71
2023/12/15 05:02:56;;;;;;;29.63;18.90;;;6.90;99.90;;;;;;4991587;28;20260;-72
2023/12/15 05:05:22;;;;;;;36.80;18.17;;;6.90;99.90;;;;;;4990532;28;20201;-72
2023/12/15 05:07:49;;;;;;;26.23;18.33;;;6.90;99.90;;;;;;4991158;28;20204;-72
2023/12/15 05:10:14;;;;;;;27.03;18.27;;;6.90;99.90;;;;;;4991178;28;20321;-72
2023/12/15 05:12:40;;;;;;;23.40;17.93;;;6.80;99.90;;;;;;4991519;28;20259;-72
2023/12/15 05:15:06;;;;;;;25.20;17.30;;;6.80;99.90;;;;;;4991504;28;20177;-72
2023/12/15 05:17:33;;;;;;;24.03;16.37;;;6.90;99.90;;;;;;4991162;28;20671;-72
2023/12/15 05:19:59;;;;;;;24.80;16.63;;;6.80;99.90;;;;;;4991535;28;20177;-72
2023/12/15 05:22:24;;;;;;;25.77;17.40;;;6.80;99.90;;;;;;4991185;28;20173;-72
2023/12/15 05:24:51;;;;;;;27.23;16.93;;;6.90;99.90;;;;;;4991320;28;20648;-72
2023/12/15 05:27:17;;;;;;;29.10;17.93;;;6.90;99.90;;;;;;4991557;28;20243;-72
2023/12/15 05:29:46;;;;;;;28.83;17.73;;;6.90;99.90;;;;;;4992164;28;20279;-72
2023/12/15 05:32:12;;;;;;;23.00;16.73;;;6.90;99.90;;;;;;4991401;28;20174;-72
2023/12/15 05:34:38;;;;;;;23.37;16.67;;;6.90;99.90;;;;;;4991225;28;20546;-72
2023/12/15 05:37:04;;;;;;;22.90;15.23;;;6.90;99.90;;;;;;4991360;28;20196;-72
2023/12/15 05:39:30;;;;;;;25.03;16.57;;;7.00;99.90;;;;;;4973454;28;20181;-72
2023/12/15 05:41:55;;;;;;;22.13;15.03;;;6.90;99.90;;;;;;4991303;28;20238;-72
2023/12/15 05:44:21;;;;;;;21.23;15.40;;;6.90;99.90;;;;;;4991138;28;20185;-72
2023/12/15 05:46:46;;;;;;;23.67;15.93;;;7.00;99.90;;;;;;4991292;28;20204;-72
2023/12/15 05:49:12;;;;;;;21.37;15.30;;;7.00;99.90;;;;;;4991075;28;20209;-72
2023/12/15 05:51:38;;;;;;;22.37;15.87;;;7.00;99.90;;;;;;4991240;28;20184;-72
2023/12/15 05:54:04;;;;;;;22.77;15.53;;;7.10;99.90;;;;;;4991065;28;20217;-72
2023/12/15 05:56:30;;;;;;;22.17;16.23;;;7.10;99.90;;;;;;4991097;28;20192;-72
2023/12/15 05:58:56;;;;;;;21.07;16.57;;;7.10;99.90;;;;;;4991273;28;20209;-72
2023/12/15 06:01:22;;;;;;;23.43;15.47;;;7.20;99.90;;;;;;4990691;28;20231;-72
2023/12/15 06:03:48;;;;;;;23.83;16.53;;;7.20;99.90;;;;;;4994498;28;20261;-72
2023/12/15 06:06:14;;;;;;;23.77;16.03;;;7.20;99.90;;;;;;4994510;28;20188;-72
2023/12/15 06:08:39;;;;;;;25.40;15.97;;;7.20;99.90;;;;;;4994615;28;20173;-72
2023/12/15 06:11:05;;;;;;;25.17;16.90;;;7.20;99.90;;;;;;4994434;28;20169;-72
2023/12/15 06:13:31;;;;;;;25.20;16.03;;;7.30;99.90;;;;;;4994072;28;20184;-72
2023/12/15 06:15:56;;;;;;;25.43;15.50;;;7.20;99.90;;;;;;4994287;28;20219;-72
2023/12/15 06:18:22;;;;;;;27.63;17.17;;;7.10;99.90;;;;;;4994305;28;20727;-73
2023/12/15 06:20:48;;;;;;;34.37;18.07;;;7.10;99.90;;;;;;4994204;28;20184;-72
2023/12/15 06:23:14;;;;;;;26.43;17.60;;;7.10;99.90;;;;;;4993763;28;20188;-72
2023/12/15 06:25:40;;;;;;;32.07;17.70;;;7.10;99.90;;;;;;4994140;28;20208;-72
2023/12/15 06:28:09;;;;;;;34.67;18.03;;;7.10;99.90;;;;;;4994352;28;20177;-72
2023/12/15 06:30:36;;;;;;;32.47;17.80;;;7.10;99.90;;;;;;4993881;28;20212;-72
2023/12/15 06:33:06;;;;;;;32.67;18.40;;;7.10;99.90;;;;;;4993945;28;20165;-72
2023/12/15 06:35:32;;;;;;;32.37;19.60;;;7.10;99.90;;;;;;4993794;28;20220;-72
2023/12/15 06:37:57;;;;;;;38.23;19.30;;;7.10;99.90;;;;;;4994011;28;20617;-72
2023/12/15 06:40:23;;;;;;;29.70;18.47;;;7.10;99.90;;;;;;4989017;28;20219;-72
2023/12/15 06:42:48;;;;;;;36.27;19.47;;;7.00;99.90;;;;;;4993846;28;20554;-71
2023/12/15 06:45:14;;;;;;;36.03;20.03;;;7.00;99.90;;;;;;4993663;28;20227;-71
2023/12/15 06:47:40;;;;;;;39.73;21.27;;;7.10;99.90;;;;;;4994156;28;20181;-71
2023/12/15 06:50:06;;;;;;;45.60;20.57;;;7.10;99.90;;;;;;4993894;28;20230;-71
2023/12/15 06:52:34;;;;;;;44.13;20.63;;;7.20;99.90;;;;;;4994775;28;20463;-71
2023/12/15 06:55:00;;;;;;;41.37;20.87;;;7.10;99.90;;;;;;4993547;28;20177;-72
2023/12/15 06:57:26;;;;;;;50.37;23.37;;;7.10;99.90;;;;;;4993534;28;20239;-72
2023/12/15 06:59:52;;;;;;;43.90;21.70;;;7.20;99.90;;;;;;5001669;28;20748;-72
2023/12/15 07:02:18;;;;;;;50.03;22.90;;;7.20;99.90;;;;;;5013111;28;20263;-72
2023/12/15 07:04:43;;;;;;;53.70;24.37;;;7.20;99.90;;;;;;5012873;28;20267;-72
2023/12/15 07:07:09;;;;;;;50.33;24.73;;;7.10;99.90;;;;;;5012812;28;20327;-71
2023/12/15 07:09:35;;;;;;;55.23;23.70;;;7.20;99.90;;;;;;5000552;28;20627;-71
2023/12/15 07:12:02;;;;;;;61.47;25.53;;;7.20;99.90;;;;;;4993273;28;20204;-71
2023/12/15 07:14:28;;;;;;;49.37;22.93;;;7.20;99.90;;;;;;4992760;28;20181;-71
2023/12/15 07:16:54;;;;;;;59.47;24.43;;;7.20;99.90;;;;;;4992598;28;20208;-71
2023/12/15 07:19:20;;;;;;;66.47;26.53;;;7.20;99.90;;;;;;4992867;28;20224;-71
2023/12/15 07:21:45;;;;;;;68.57;26.07;;;7.20;99.90;;;;;;4993394;28;20900;-71
2023/12/15 07:24:11;;;;;;;69.20;25.87;;;7.30;99.90;;;;;;4992527;28;20247;-72
2023/12/15 07:26:38;;;;;;;57.40;24.20;;;7.30;99.90;;;;;;4992943;28;20205;-72
2023/12/15 07:29:03;;;;;;;55.77;26.67;;;7.30;99.90;;;;;;4992794;28;20604;-72
2023/12/15 07:31:29;;;;;;;56.73;25.73;;;7.30;99.90;;;;;;4992680;28;20256;-71
2023/12/15 07:33:54;;;;;;;61.17;24.73;;;7.30;99.90;;;;;;4992946;28;20330;-71
2023/12/15 07:36:20;;;;;;;60.60;26.63;;;7.30;99.90;;;;;;4992564;28;20262;-72
2023/12/15 07:38:46;;;;;;;63.17;25.53;;;7.30;99.90;;;;;;4992784;28;20188;-72
2023/12/15 07:41:12;;;;;;;62.77;25.80;;;7.30;99.90;;;;;;4992128;28;20185;-71
2023/12/15 07:43:38;;;;;;;64.03;25.43;;;7.30;99.90;;;;;;4992249;28;20251;-71
2023/12/15 07:46:03;;;;;;;64.30;26.20;;;7.30;99.90;;;;;;4992529;28;20188;-72
2023/12/15 07:48:29;;;;;;;63.70;27.33;;;7.30;99.90;;;;;;4992122;28;20851;-71
2023/12/15 07:50:55;;;;;;;65.97;26.83;;;7.30;99.90;;;;;;4992128;28;20571;-71
2023/12/15 07:53:21;;;;;;;69.73;26.17;;;7.40;99.90;;;;;;4991790;28;20252;-72
2023/12/15 07:55:46;;;;;;;72.23;27.43;;;7.40;99.90;;;;;;4992322;28;20730;-72
2023/12/15 07:58:12;;;;;;;73.07;29.07;;;7.40;99.90;;;;;;4992325;28;20177;-72
2023/12/15 08:00:37;;;;;;;73.07;28.73;;;7.50;99.90;;;;;;4991983;28;20675;-72
2023/12/15 08:03:03;;;;;;;65.77;27.77;;;7.50;99.90;;;;;;4991925;28;20637;-72
2023/12/15 08:05:29;;;;;;;70.97;27.30;;;7.50;99.90;;;;;;4984853;28;20205;-72
2023/12/15 08:07:55;;;;;;;82.07;30.57;;;7.50;99.90;;;;;;4991907;28;20180;-72
2023/12/15 08:10:20;;;;;;;70.60;30.10;;;7.60;99.90;;;;;;4991593;28;20274;-71
2023/12/15 08:12:46;;;;;;;70.53;27.07;;;7.50;99.90;;;;;;4991845;28;20185;-72
2023/12/15 08:15:12;;;;;;;89.67;27.70;;;7.50;99.90;;;;;;4992529;28;20696;-72
2023/12/15 08:17:37;;;;;;;75.13;28.73;;;7.60;99.90;;;;;;4991903;28;20652;-72
2023/12/15 08:20:03;;;;;;;67.23;28.90;;;7.60;99.90;;;;;;4991938;28;20176;-72
2023/12/15 08:22:29;;;;;;;66.23;26.77;;;7.60;99.90;;;;;;4991273;28;20283;-72
2023/12/15 08:24:55;;;;;;;73.23;27.47;;;7.70;99.90;;;;;;4991345;28;20264;-72
2023/12/15 08:27:21;;;;;;;68.60;28.83;;;7.70;99.90;;;;;;4991779;28;20185;-72
2023/12/15 08:29:46;;;;;;;74.17;29.30;;;7.60;99.90;;;;;;4991912;28;20680;-72
2023/12/15 08:32:12;;;;;;;65.47;27.40;;;7.60;99.90;;;;;;4991528;28;20250;-72
2023/12/15 08:34:38;;;;;;;67.07;28.33;;;7.60;99.90;;;;;;4991609;28;20200;-72
2023/12/15 08:37:03;;;;;;;69.60;28.87;;;7.60;99.90;;;;;;4991679;28;20205;-71
2023/12/15 08:39:29;;;;;;;64.10;27.03;;;7.70;99.90;;;;;;4992017;28;20187;-72
2023/12/15 08:41:55;;;;;;;67.93;28.43;;;7.70;99.90;;;;;;4991797;28;20177;-71
2023/12/15 08:44:21;;;;;;;67.77;27.13;;;7.70;99.90;;;;;;4991395;28;20690;-72
2023/12/15 08:46:46;;;;;;;69.70;27.20;;;7.70;99.90;;;;;;4987072;28;20213;-72
2023/12/15 08:49:12;;;;;;;75.67;29.73;;;7.70;99.90;;;;;;4990993;28;20212;-72
2023/12/15 08:51:37;;;;;;;69.90;28.17;;;7.80;99.90;;;;;;4991663;28;20180;-73
2023/12/15 08:54:03;;;;;;;70.03;28.40;;;7.80;99.90;;;;;;4991571;28;20227;-73
2023/12/15 08:56:29;;;;;;;71.93;28.73;;;7.80;99.90;;;;;;4991712;28;20276;-73
2023/12/15 08:58:55;;;;;;;72.70;28.60;;;7.80;99.90;;;;;;4991803;28;20255;-74
2023/12/15 09:01:21;;;;;;;70.00;29.00;;;7.90;99.90;;;;;;4991124;28;20535;-73
2023/12/15 09:03:47;;;;;;;70.43;30.93;;;8.00;99.90;;;;;;4991087;28;20169;-73
2023/12/15 09:06:12;;;;;;;78.50;30.87;;;8.00;99.90;;;;;;4991324;28;20683;-73
2023/12/15 09:08:38;;;;;;;66.20;29.33;;;8.00;99.90;;;;;;4991573;28;20663;-73
2023/12/15 09:11:05;;;;;;;80.93;31.30;;;8.00;99.90;;;;;;4991394;28;20208;-73
2023/12/15 09:13:32;;;;;;;75.37;29.50;;;8.10;99.90;;;;;;4991429;28;20173;-73
2023/12/15 09:15:57;;;;;;;72.97;29.97;;;8.10;99.90;;;;;;4991202;28;20189;-73
2023/12/15 09:18:23;;;;;;;72.87;29.10;;;8.10;99.90;;;;;;4991945;28;20177;-73
2023/12/15 09:20:49;;;;;;;63.60;28.33;;;8.10;99.90;;;;;;4991337;28;20568;-73
2023/12/15 09:23:15;;;;;;;68.60;28.53;;;8.10;99.90;;;;;;4991064;28;20197;-73
2023/12/15 09:25:41;;;;;;;80.13;31.47;;;8.10;99.90;;;;;;4991215;28;20676;-72
2023/12/15 09:28:07;;;;;;;78.67;29.20;;;8.10;99.90;;;;;;4986586;28;20178;-73
2023/12/15 09:30:33;;;;;;;74.33;31.03;;;8.10;99.90;;;;;;4990992;28;20201;-73
2023/12/15 09:32:59;;;;;;;70.77;27.93;;;8.10;99.90;;;;;;4973618;28;20312;-73
2023/12/15 09:35:25;;;;;;;76.13;29.37;;;8.20;99.90;;;;;;4991220;28;20728;-73
2023/12/15 09:37:50;;;;;;;73.07;28.03;;;8.20;99.90;;;;;;4994367;28;20173;-73
2023/12/15 09:40:21;;;;;;;72.97;30.40;;;8.10;99.90;;;;;;4994480;28;20220;-73
2023/12/15 09:42:47;;;;;;;73.50;30.43;;;8.20;99.90;;;;;;4994779;28;20653;-73
2023/12/15 09:45:12;;;;;;;69.63;29.67;;;8.20;99.90;;;;;;4991965;28;20211;-73
2023/12/15 09:47:44;;;;;;;70.43;27.63;;;8.30;99.90;;;;;;4994159;28;20648;-74
2023/12/15 09:50:11;;;;;;;69.37;27.27;;;8.30;99.90;;;;;;4994629;28;20211;-74
2023/12/15 09:52:39;;;;;;;70.77;29.57;;;8.30;99.90;;;;;;4994594;28;20663;-73
2023/12/15 09:55:09;;;;;;;63.30;28.50;;;8.30;99.90;;;;;;4994590;28;20196;-73
2023/12/15 09:57:35;;;;;;;66.63;28.97;;;8.40;99.90;;;;;;4994374;28;20187;-73
2023/12/15 10:00:01;;;;;;;60.97;28.50;;;8.40;99.90;;;;;;4994577;28;20176;-73
2023/12/15 10:02:26;;;;;;;69.20;29.03;;;8.30;99.90;;;;;;4994168;28;20185;-73
2023/12/15 10:04:52;;;;;;;75.47;29.63;;;8.50;99.90;;;;;;4994147;28;20259;-73
2023/12/15 10:07:18;;;;;;;58.53;27.27;;;8.50;99.90;;;;;;4994313;28;20215;-73
2023/12/15 10:09:44;;;;;;;64.77;27.13;;;8.50;99.90;;;;;;4994369;28;20201;-73
2023/12/15 10:12:10;;;;;;;65.30;27.77;;;8.60;99.90;;;;;;4994386;28;20212;-73
2023/12/15 10:14:37;;;;;;;63.17;28.10;;;8.60;99.90;;;;;;4994096;28;20169;-73
2023/12/15 10:17:07;;;;;;;64.60;28.13;;;8.70;99.90;;;;;;4994156;28;20204;-73
2023/12/15 10:19:33;;;;;;;60.77;28.33;;;8.80;99.90;;;;;;4994370;28;20648;-73
2023/12/15 10:22:02;;;;;;;60.70;27.23;;;8.90;99.90;;;;;;4994180;28;20180;-73
2023/12/15 10:24:27;;;;;;;59.47;29.27;;;8.90;99.90;;;;;;4993768;28;20180;-73
2023/12/15 10:26:53;;;;;;;58.13;29.40;;;8.90;99.90;;;;;;4976643;28;20505;-73
2023/12/15 10:29:19;;;;;;;66.90;28.70;;;8.90;99.90;;;;;;4994000;28;20212;-73
2023/12/15 10:31:45;;;;;;;59.67;28.53;;;8.90;99.90;;;;;;4994018;28;20165;-73
2023/12/15 10:34:11;;;;;;;64.97;29.17;;;8.90;99.90;;;;;;4993696;28;20169;-73
2023/12/15 10:36:40;;;;;;;64.93;27.23;;;8.90;99.90;;;;;;4993972;28;20207;-73
2023/12/15 10:39:07;;;;;;;56.93;27.63;;;8.90;99.90;;;;;;4993723;28;20173;-73
2023/12/15 10:41:34;;;;;;;58.53;27.70;;;8.90;99.90;;;;;;4993647;28;20173;-73
2023/12/15 10:44:03;;;;;;;61.17;26.10;;;8.90;99.90;;;;;;4993829;28;20180;-72
2023/12/15 10:46:29;;;;;;;62.07;27.13;;;8.90;99.90;;;;;;4993744;28;20283;-72
2023/12/15 10:48:55;;;;;;;57.80;27.10;;;8.90;99.90;;;;;;4993252;28;20533;-73
2023/12/15 10:51:24;;;;;;;59.97;26.40;;;9.00;99.90;;;;;;4993916;28;20501;-73
2023/12/15 10:53:53;;;;;;;57.57;25.00;;;9.00;99.90;;;;;;4993418;28;20184;-72
2023/12/15 10:56:19;;;;;;;58.47;26.57;;;9.10;99.90;;;;;;4975773;28;20208;-73
2023/12/15 10:58:45;;;;;;;57.93;25.90;;;9.10;99.90;;;;;;4993131;28;20648;-73
2023/12/15 11:01:12;;;;;;;62.77;27.53;;;9.10;99.90;;;;;;4993392;28;20224;-73
2023/12/15 11:03:38;;;;;;;56.30;25.13;;;9.20;99.90;;;;;;4992432;28;20677;-73
2023/12/15 11:06:05;;;;;;;54.57;24.57;;;9.20;99.90;;;;;;4993468;28;20193;-73
2023/12/15 11:08:32;;;;;;;50.87;25.27;;;9.20;99.90;;;;;;4993646;28;20587;-73
2023/12/15 11:10:57;;;;;;;52.30;25.77;;;9.20;99.90;;;;;;4992765;28;20214;-73
2023/12/15 11:13:49;;;;;;;51.27;25.50;;;9.30;99.90;;;;;;4992562;28;20258;-73
2023/12/15 11:16:17;;;;;;;49.27;23.20;;;9.40;99.90;;;;;;4993081;28;20208;-72
2023/12/15 11:18:43;;;;;;;54.40;25.97;;;9.30;99.90;;;;;;4993286;28;20181;-73
2023/12/15 11:21:10;;;;;;;49.07;24.57;;;9.40;99.90;;;;;;4992659;28;20185;-73
2023/12/15 11:23:55;;;;;;;55.73;24.60;;;9.30;99.90;;;;;;4992985;28;20541;-73
2023/12/15 11:26:26;;;;;;;50.60;24.23;;;9.40;99.90;;;;;;4992991;28;20557;-73
2023/12/15 11:28:55;;;;;;;50.63;23.93;;;9.40;99.90;;;;;;4992708;28;20181;-72
2023/12/15 11:31:28;;;;;;;50.80;23.13;;;9.50;99.90;;;;;;4992434;28;20204;-73
2023/12/15 11:33:54;;;;;;;52.07;24.33;;;9.50;99.90;;;;;;4992525;28;20177;-73
2023/12/15 11:36:20;;;;;;;49.23;24.87;;;9.40;99.90;;;;;;4992174;28;20207;-73
2023/12/15 11:38:48;;;;;;;48.80;22.70;;;9.40;99.90;;;;;;4992779;28;20240;-72
2023/12/15 11:41:18;;;;;;;46.70;24.17;;;9.40;99.90;;;;;;4993115;28;20173;-73
2023/12/15 11:43:44;;;;;;;51.60;25.63;;;9.40;99.90;;;;;;4992730;28;20255;-73
2023/12/15 11:46:13;;;;;;;52.80;24.57;;;9.40;99.90;;;;;;4992249;28;20581;-73
2023/12/15 11:48:40;;;;;;;48.63;23.83;;;9.50;99.90;;;;;;4992109;28;20517;-73
2023/12/15 11:51:10;;;;;;;53.53;25.43;;;9.60;99.90;;;;;;4992649;28;20208;-73
2023/12/15 11:53:41;;;;;;;46.13;23.63;;;9.60;99.90;;;;;;4992550;28;20181;-73
2023/12/15 11:56:09;;;;;;;51.53;25.37;;;9.50;99.90;;;;;;4991779;28;20288;-73
2023/12/15 11:58:35;;;;;;;52.10;22.93;;;9.50;99.90;;;;;;4992442;28;20231;-73
2023/12/15 12:01:02;;;;;;;51.60;24.50;;;9.50;99.90;;;;;;4991923;28;20180;-73
2023/12/15 12:03:31;;;;;;;48.10;24.23;;;9.50;99.90;;;;;;4992704;28;20672;-72
2023/12/15 12:05:58;;;;;;;53.00;24.70;;;9.40;99.90;;;;;;4992488;28;20193;-73
2023/12/15 12:08:23;;;;;;;50.93;26.17;;;9.40;99.90;;;;;;4992548;28;20561;-73
2023/12/15 12:10:50;;;;;;;45.63;23.87;;;9.40;99.90;;;;;;4992052;28;20208;-73
2023/12/15 12:13:16;;;;;;;48.07;24.03;;;9.40;99.90;;;;;;4991612;28;20181;-73
2023/12/15 12:15:52;;;;;;;48.80;24.20;;;9.40;99.90;;;;;;4992364;28;20262;-73
2023/12/15 12:18:23;;;;;;;35.13;21.27;;;9.40;99.90;;;;;;4974348;28;20185;-73
2023/12/15 12:20:53;;;;;;;47.40;24.07;;;9.30;99.90;;;;;;4978338;28;20279;-73
2023/12/15 12:23:23;;;;;;;54.10;25.07;;;9.30;99.90;;;;;;4974144;28;20180;-72
2023/12/15 12:25:51;;;;;;;53.10;24.40;;;9.30;99.90;;;;;;4972732;28;20193;-72
2023/12/15 12:28:20;;;;;;;52.67;26.37;;;9.20;99.90;;;;;;4972865;28;20650;-73
2023/12/15 12:30:45;;;;;;;51.33;24.33;;;9.30;99.90;;;;;;4972535;28;20716;-73
2023/12/15 12:33:11;;;;;;;51.93;25.00;;;9.20;99.90;;;;;;4972508;28;20182;-73